Time;durP1;ratioP1;P1;durP2;ratioP2;P2;SDS_P1;SDS_P2;PMS_P1;PMS_P2;Temp;Humidity;BMP_temperature;BMP_pressure;BME280_temperature;BME280_humidity;BME280_pressure;Samples;Min_cycle;Max_cycle;Signal;HPM_P1;HPM_P2
2022/01/02 00:02:04;;;;;;;5.75;2.47;;;;;;;;;;5073162;28;20115;-91
2022/01/02 00:04:35;;;;;;;13.10;3.13;;;;;;;;;;5073287;28;20028;-91
2022/01/02 00:07:02;;;;;;;7.40;2.50;;;;;;;;;;5073082;28;20033;-91
2022/01/02 00:09:33;;;;;;;11.65;3.20;;;;;;;;;;5073054;28;20024;-91
2022/01/02 00:12:08;;;;;;;13.93;2.70;;;;;;;;;;5072496;28;20013;-91
2022/01/02 00:14:35;;;;;;;7.05;2.70;;;;;;;;;;5073095;28;20035;-91
2022/01/02 00:17:04;;;;;;;10.68;2.97;;;;;;;;;;5074192;28;20023;-91
2022/01/02 00:19:31;;;;;;;10.63;2.53;;;;;;;;;;5072246;28;20058;-92
2022/01/02 00:22:00;;;;;;;10.68;3.15;;;;;;;;;;5073024;28;20055;-91
2022/01/02 00:24:26;;;;;;;8.32;3.00;;;;;;;;;;5072938;28;20563;-91
2022/01/02 00:26:53;;;;;;;10.52;2.70;;;;;;;;;;5072872;28;20024;-91
2022/01/02 00:29:19;;;;;;;10.13;2.70;;;;;;;;;;5072078;28;20012;-91
2022/01/02 00:31:45;;;;;;;8.27;2.92;;;;;;;;;;5058398;28;20120;-91
2022/01/02 00:34:11;;;;;;;7.53;3.00;;;;;;;;;;5053884;28;20017;-91
2022/01/02 00:36:36;;;;;;;15.82;2.70;;;;;;;;;;5052721;28;20025;-92
2022/01/02 00:39:02;;;;;;;9.68;2.63;;;;;;;;;;5053794;28;20017;-91
2022/01/02 00:41:33;;;;;;;9.82;2.88;;;;;;;;;;5053827;28;20021;-91
2022/01/02 00:44:11;;;;;;;10.93;2.70;;;;;;;;;;5053860;28;20565;-91
2022/01/02 00:46:45;;;;;;;9.10;2.97;;;;;;;;;;5053810;28;20021;-91
2022/01/02 00:49:11;;;;;;;13.85;2.83;;;;;;;;;;5056186;28;20116;-92
2022/01/02 00:51:47;;;;;;;10.38;2.53;;;;;;;;;;5056596;28;20484;-91
2022/01/02 00:54:17;;;;;;;8.52;2.50;;;;;;;;;;5056585;28;20021;-91
2022/01/02 00:56:43;;;;;;;7.32;2.38;;;;;;;;;;5057866;28;20017;-91
2022/01/02 00:59:12;;;;;;;10.13;2.72;;;;;;;;;;5056372;28;20025;-91
2022/01/02 01:01:38;;;;;;;15.43;3.03;;;;;;;;;;5056267;28;20098;-91
2022/01/02 01:04:05;;;;;;;9.60;2.63;;;;;;;;;;5056546;28;20029;-91
2022/01/02 01:06:32;;;;;;;7.20;2.70;;;;;;;;;;5056395;28;20107;-91
2022/01/02 01:09:00;;;;;;;10.45;2.90;;;;;;;;;;5057382;28;20016;-91
2022/01/02 01:11:26;;;;;;;12.60;2.97;;;;;;;;;;5056291;28;20031;-92
2022/01/02 01:13:52;;;;;;;7.68;2.70;;;;;;;;;;5056201;28;20537;-92
2022/01/02 01:16:18;;;;;;;16.13;3.50;;;;;;;;;;5056282;28;20116;-91
2022/01/02 01:18:43;;;;;;;15.07;3.60;;;;;;;;;;5057308;28;20095;-91
2022/01/02 01:21:08;;;;;;;13.25;3.97;;;;;;;;;;5056043;28;20588;-91
2022/01/02 01:23:34;;;;;;;5.60;2.72;;;;;;;;;;5057610;28;20053;-92
2022/01/02 01:26:05;;;;;;;12.73;2.72;;;;;;;;;;5055919;28;20021;-92
2022/01/02 01:28:30;;;;;;;12.18;4.22;;;;;;;;;;5057096;28;20070;-91
2022/01/02 01:30:56;;;;;;;10.43;2.83;;;;;;;;;;5055945;28;20025;-91
2022/01/02 01:33:21;;;;;;;11.43;3.00;;;;;;;;;;5056947;28;20526;-91
2022/01/02 01:35:46;;;;;;;8.57;2.83;;;;;;;;;;5056881;28;20017;-91
2022/01/02 01:38:12;;;;;;;9.07;2.97;;;;;;;;;;5055965;28;20032;-91
2022/01/02 01:40:43;;;;;;;9.48;2.60;;;;;;;;;;5055614;28;20539;-91
2022/01/02 01:43:10;;;;;;;10.82;2.90;;;;;;;;;;5055717;28;20017;-92
2022/01/02 01:45:35;;;;;;;9.45;2.85;;;;;;;;;;5055659;28;20473;-91
2022/01/02 01:48:02;;;;;;;9.23;3.38;;;;;;;;;;5055590;28;20094;-91
2022/01/02 01:50:29;;;;;;;9.35;2.95;;;;;;;;;;5055462;28;20490;-91
2022/01/02 01:52:55;;;;;;;11.48;3.13;;;;;;;;;;5055408;28;20106;-91
2022/01/02 01:55:20;;;;;;;12.27;3.20;;;;;;;;;;5055757;28;20020;-92
2022/01/02 01:57:46;;;;;;;7.40;2.70;;;;;;;;;;5055477;28;20028;-91
2022/01/02 02:00:14;;;;;;;10.20;3.28;;;;;;;;;;5054821;28;20536;-91
2022/01/02 02:02:39;;;;;;;12.55;3.33;;;;;;;;;;5055332;28;20017;-91
2022/01/02 02:05:05;;;;;;;10.15;3.42;;;;;;;;;;5055344;28;20518;-91
2022/01/02 02:07:38;;;;;;;7.57;2.83;;;;;;;;;;5055281;28;20059;-91
2022/01/02 02:10:12;;;;;;;12.38;3.45;;;;;;;;;;5056753;28;20100;-91
2022/01/02 02:12:39;;;;;;;10.45;2.92;;;;;;;;;;5055261;28;20047;-91
2022/01/02 02:15:04;;;;;;;14.63;3.10;;;;;;;;;;5055117;28;20016;-91
2022/01/02 02:17:30;;;;;;;8.18;2.90;;;;;;;;;;5055070;28;20028;-90
2022/01/02 02:19:59;;;;;;;15.57;3.00;;;;;;;;;;5053896;28;20023;-91
2022/01/02 02:22:25;;;;;;;8.60;2.45;;;;;;;;;;5054977;28;20020;-91
2022/01/02 02:24:50;;;;;;;8.57;2.85;;;;;;;;;;5054889;28;20120;-91
2022/01/02 02:27:21;;;;;;;11.07;3.28;;;;;;;;;;5055905;28;20020;-91
2022/01/02 02:29:46;;;;;;;15.57;2.88;;;;;;;;;;5055052;28;20023;-91
2022/01/02 02:32:12;;;;;;;11.25;3.05;;;;;;;;;;5088227;28;20021;-91
2022/01/02 02:34:37;;;;;;;14.57;2.58;;;;;;;;;;5054738;28;20373;-92
2022/01/02 02:37:02;;;;;;;11.10;2.92;;;;;;;;;;5054611;28;20468;-91
2022/01/02 02:39:29;;;;;;;8.40;2.85;;;;;;;;;;5088213;28;20050;-91
2022/01/02 02:41:54;;;;;;;9.52;2.85;;;;;;;;;;5088071;28;20107;-91
2022/01/02 02:44:33;;;;;;;15.65;2.80;;;;;;;;;;5054598;28;20057;-91
2022/01/02 02:49:42;;;;;;;13.93;3.05;;;;;;;;;;5064244;28;20077;-91
2022/01/02 02:52:18;;;;;;;12.98;3.42;;;;;;;;;;5074430;28;20028;-91
2022/01/02 02:54:43;;;;;;;11.07;3.75;;;;;;;;;;5074478;28;20399;-91
2022/01/02 02:57:13;;;;;;;12.52;3.28;;;;;;;;;;5074312;28;20017;-91
2022/01/02 02:59:38;;;;;;;15.88;2.88;;;;;;;;;;5074263;28;20063;-91
2022/01/02 03:02:04;;;;;;;8.88;2.58;;;;;;;;;;5062536;28;20048;-91
2022/01/02 03:04:29;;;;;;;12.60;2.42;;;;;;;;;;5054255;28;20069;-91
2022/01/02 03:06:57;;;;;;;15.63;2.53;;;;;;;;;;5054377;28;20025;-91
2022/01/02 03:09:40;;;;;;;11.43;3.03;;;;;;;;;;5054006;28;20197;-91
2022/01/02 03:12:06;;;;;;;15.30;3.00;;;;;;;;;;5053651;28;20027;-91
2022/01/02 03:14:32;;;;;;;8.00;2.75;;;;;;;;;;5053950;28;20131;-91
2022/01/02 03:16:57;;;;;;;9.70;2.97;;;;;;;;;;5054927;28;20029;-91
2022/01/02 03:19:22;;;;;;;8.45;2.70;;;;;;;;;;5053939;28;20492;-91
2022/01/02 03:21:48;;;;;;;9.43;2.60;;;;;;;;;;5053904;28;20028;-91
2022/01/02 03:24:14;;;;;;;8.75;2.63;;;;;;;;;;5053795;28;20013;-92
2022/01/02 03:26:39;;;;;;;13.10;2.65;;;;;;;;;;5053553;28;20120;-91
2022/01/02 03:29:04;;;;;;;7.72;2.67;;;;;;;;;;5054902;28;20020;-91
2022/01/02 03:31:29;;;;;;;10.18;2.90;;;;;;;;;;5054894;28;20031;-91
2022/01/02 03:33:55;;;;;;;8.80;2.63;;;;;;;;;;5053704;28;20167;-91
2022/01/02 03:36:20;;;;;;;7.50;2.60;;;;;;;;;;5053609;28;20048;-91
2022/01/02 03:38:45;;;;;;;9.95;2.70;;;;;;;;;;5054195;28;20461;-91
2022/01/02 03:41:10;;;;;;;16.02;2.90;;;;;;;;;;5054565;28;20024;-91
2022/01/02 03:43:36;;;;;;;10.98;2.88;;;;;;;;;;5053523;28;20441;-91
2022/01/02 03:46:04;;;;;;;8.88;2.72;;;;;;;;;;5054522;28;20017;-91
2022/01/02 03:48:33;;;;;;;8.35;2.30;;;;;;;;;;5070400;28;20025;-91
2022/01/02 03:50:58;;;;;;;10.57;2.80;;;;;;;;;;5073109;28;20476;-92
2022/01/02 03:53:23;;;;;;;8.93;2.60;;;;;;;;;;5074490;28;20100;-91
2022/01/02 03:55:48;;;;;;;7.75;2.63;;;;;;;;;;5073263;28;20031;-92
2022/01/02 03:58:14;;;;;;;7.30;2.85;;;;;;;;;;5073121;28;20391;-91
2022/01/02 04:00:39;;;;;;;14.13;3.20;;;;;;;;;;5056488;28;20029;-91
2022/01/02 04:03:04;;;;;;;7.53;2.53;;;;;;;;;;5034326;28;20025;-92
2022/01/02 04:05:29;;;;;;;11.57;2.35;;;;;;;;;;5034209;28;20075;-91
2022/01/02 04:07:55;;;;;;;9.27;2.35;;;;;;;;;;5066465;28;20025;-91
2022/01/02 04:10:20;;;;;;;8.70;2.50;;;;;;;;;;5049587;28;20530;-91
2022/01/02 04:12:45;;;;;;;7.85;2.65;;;;;;;;;;5066615;28;20029;-91
2022/01/02 04:15:12;;;;;;;8.07;2.80;;;;;;;;;;5066422;28;20033;-91
2022/01/02 04:17:37;;;;;;;10.55;2.85;;;;;;;;;;5046821;28;20025;-91
2022/01/02 04:20:04;;;;;;;14.43;2.55;;;;;;;;;;5052771;28;20036;-92
2022/01/02 04:22:29;;;;;;;9.10;2.28;;;;;;;;;;5052758;28;20057;-91
2022/01/02 04:24:54;;;;;;;8.90;2.58;;;;;;;;;;5054051;28;20036;-91
2022/01/02 04:27:21;;;;;;;7.03;2.30;;;;;;;;;;5054035;28;20029;-92
2022/01/02 04:29:46;;;;;;;7.85;2.38;;;;;;;;;;5052894;28;20437;-91
2022/01/02 04:32:12;;;;;;;7.00;2.58;;;;;;;;;;5062289;28;20025;-91
2022/01/02 04:34:37;;;;;;;8.23;2.58;;;;;;;;;;5072953;28;20032;-91
2022/01/02 04:37:04;;;;;;;7.97;2.17;;;;;;;;;;5074088;28;20464;-91
2022/01/02 04:39:29;;;;;;;7.53;2.58;;;;;;;;;;5072932;28;20017;-92
2022/01/02 04:41:54;;;;;;;9.13;2.72;;;;;;;;;;5072833;28;20024;-91
2022/01/02 04:44:20;;;;;;;8.98;2.30;;;;;;;;;;5073135;28;20020;-91
2022/01/02 04:46:45;;;;;;;6.10;2.13;;;;;;;;;;5072806;28;20115;-91
2022/01/02 04:49:10;;;;;;;12.25;3.00;;;;;;;;;;5072904;28;20025;-91
2022/01/02 04:51:35;;;;;;;17.33;2.20;;;;;;;;;;5069660;28;20021;-90
2022/01/02 04:54:00;;;;;;;9.82;2.80;;;;;;;;;;5052722;28;20028;-91
2022/01/02 04:56:26;;;;;;;11.43;2.47;;;;;;;;;;5052783;28;20028;-91
2022/01/02 04:58:51;;;;;;;8.70;2.28;;;;;;;;;;5053835;28;20025;-91
2022/01/02 05:01:16;;;;;;;9.13;2.70;;;;;;;;;;5052581;28;20457;-91
2022/01/02 05:03:42;;;;;;;6.63;2.35;;;;;;;;;;5053790;28;20457;-91
2022/01/02 05:06:07;;;;;;;10.63;2.33;;;;;;;;;;5052575;28;20064;-91
2022/01/02 05:08:33;;;;;;;9.63;2.33;;;;;;;;;;5053695;28;20025;-91
2022/01/02 05:10:58;;;;;;;4.90;2.00;;;;;;;;;;5052485;28;20048;-92
2022/01/02 05:13:23;;;;;;;8.80;2.20;;;;;;;;;;5052553;28;20024;-91
2022/01/02 05:15:49;;;;;;;5.38;2.20;;;;;;;;;;5046879;28;20032;-91
2022/01/02 05:18:14;;;;;;;10.25;2.40;;;;;;;;;;5085974;28;20032;-91
2022/01/02 05:20:39;;;;;;;9.77;2.60;;;;;;;;;;5085950;28;20025;-91
2022/01/02 05:23:04;;;;;;;6.57;2.25;;;;;;;;;;5053525;28;20465;-91
2022/01/02 05:25:30;;;;;;;7.97;2.50;;;;;;;;;;5085799;28;20017;-91
2022/01/02 05:27:55;;;;;;;8.68;2.55;;;;;;;;;;5052277;28;20110;-91
2022/01/02 05:30:20;;;;;;;7.32;2.35;;;;;;;;;;5085950;28;20021;-90
2022/01/02 05:32:45;;;;;;;7.63;2.72;;;;;;;;;;5086063;28;20380;-91
2022/01/02 05:35:10;;;;;;;6.55;2.42;;;;;;;;;;5056597;28;20063;-91
2022/01/02 05:37:36;;;;;;;10.60;2.40;;;;;;;;;;5055801;28;20024;-91
2022/01/02 05:40:01;;;;;;;6.82;2.22;;;;;;;;;;5089350;28;20021;-91
2022/01/02 05:42:26;;;;;;;7.95;2.20;;;;;;;;;;5089373;28;20017;-91
2022/01/02 05:44:52;;;;;;;6.57;2.20;;;;;;;;;;5089386;28;20021;-91
2022/01/02 05:47:17;;;;;;;8.77;2.30;;;;;;;;;;5089227;28;20354;-91
2022/01/02 05:49:42;;;;;;;3.05;1.60;;;;;;;;;;5055734;28;20032;-91
2022/01/02 05:52:07;;;;;;;7.63;2.00;;;;;;;;;;5089130;28;20017;-91
2022/01/02 05:54:32;;;;;;;10.35;2.10;;;;;;;;;;5089134;28;20147;-91
2022/01/02 05:56:58;;;;;;;5.57;2.20;;;;;;;;;;5089220;28;20434;-91
2022/01/02 05:59:24;;;;;;;7.15;2.30;;;;;;;;;;5056384;28;20120;-91
2022/01/02 06:01:50;;;;;;;6.60;2.28;;;;;;;;;;5055244;28;20067;-91
2022/01/02 06:04:15;;;;;;;8.45;2.30;;;;;;;;;;5055269;28;20013;-91
2022/01/02 06:06:40;;;;;;;5.40;2.05;;;;;;;;;;5055388;28;20017;-92
2022/01/02 06:09:05;;;;;;;7.88;2.47;;;;;;;;;;5055046;28;20372;-92
2022/01/02 06:11:31;;;;;;;4.70;1.80;;;;;;;;;;5055187;28;20021;-92
2022/01/02 06:13:56;;;;;;;3.30;1.98;;;;;;;;;;5055265;28;20422;-92
2022/01/02 06:16:21;;;;;;;3.97;1.92;;;;;;;;;;5054912;28;20021;-92
2022/01/02 06:18:46;;;;;;;3.55;1.92;;;;;;;;;;5054924;28;20028;-91
2022/01/02 06:21:11;;;;;;;7.07;2.08;;;;;;;;;;5054799;28;20376;-92
2022/01/02 06:23:37;;;;;;;6.15;1.90;;;;;;;;;;5054737;28;20013;-91
2022/01/02 06:26:02;;;;;;;7.30;2.42;;;;;;;;;;5054538;28;20021;-92
2022/01/02 06:28:27;;;;;;;4.55;1.85;;;;;;;;;;5057019;28;20490;-91
2022/01/02 06:30:52;;;;;;;5.30;1.83;;;;;;;;;;5054758;28;20016;-91
2022/01/02 06:33:18;;;;;;;5.15;1.95;;;;;;;;;;5054612;28;20450;-92
2022/01/02 06:35:43;;;;;;;2.88;1.80;;;;;;;;;;5054707;28;20024;-91
2022/01/02 06:38:11;;;;;;;4.13;1.77;;;;;;;;;;5054789;28;20461;-91
2022/01/02 06:40:36;;;;;;;8.07;2.20;;;;;;;;;;5087755;28;20055;-91
2022/01/02 06:43:01;;;;;;;4.57;2.20;;;;;;;;;;5054658;28;20456;-91
2022/01/02 06:45:27;;;;;;;3.90;2.13;;;;;;;;;;5054287;28;20027;-92
2022/01/02 06:47:52;;;;;;;7.70;1.85;;;;;;;;;;5054447;28;20500;-91
2022/01/02 06:50:17;;;;;;;2.85;1.52;;;;;;;;;;5055653;28;20056;-91
2022/01/02 06:52:42;;;;;;;7.10;2.00;;;;;;;;;;5054547;28;20491;-91
2022/01/02 06:55:08;;;;;;;4.80;1.95;;;;;;;;;;5055610;28;20028;-92
2022/01/02 06:57:33;;;;;;;5.50;2.00;;;;;;;;;;5052909;28;20119;-92
2022/01/02 06:59:58;;;;;;;4.65;1.92;;;;;;;;;;5035480;28;20017;-92
2022/01/02 07:02:23;;;;;;;4.47;2.25;;;;;;;;;;5034318;28;20058;-92
2022/01/02 07:04:48;;;;;;;4.70;1.90;;;;;;;;;;5034222;28;20057;-91
2022/01/02 07:07:14;;;;;;;7.00;1.92;;;;;;;;;;5035482;28;20475;-91
2022/01/02 07:09:39;;;;;;;5.55;2.20;;;;;;;;;;5035311;28;20377;-91
2022/01/02 07:12:04;;;;;;;6.22;1.85;;;;;;;;;;5035210;28;20024;-92
2022/01/02 07:14:30;;;;;;;3.65;1.77;;;;;;;;;;5034115;28;20017;-91
2022/01/02 07:16:59;;;;;;;6.07;2.20;;;;;;;;;;5034054;28;20026;-91
2022/01/02 07:19:24;;;;;;;3.78;2.00;;;;;;;;;;5034093;28;20355;-91
2022/01/02 07:21:50;;;;;;;6.00;1.85;;;;;;;;;;5052058;28;20032;-92
2022/01/02 07:24:15;;;;;;;6.72;2.50;;;;;;;;;;5053875;28;20071;-92
2022/01/02 07:26:41;;;;;;;7.60;2.35;;;;;;;;;;5053610;28;20025;-91
2022/01/02 07:29:06;;;;;;;6.57;2.08;;;;;;;;;;5053715;28;20391;-91
2022/01/02 07:31:31;;;;;;;5.45;2.13;;;;;;;;;;5053774;28;20086;-91
2022/01/02 07:33:56;;;;;;;5.80;1.98;;;;;;;;;;5053802;28;20028;-91
2022/01/02 07:36:22;;;;;;;3.88;2.08;;;;;;;;;;5053712;28;20031;-91
2022/01/02 07:38:47;;;;;;;8.82;2.08;;;;;;;;;;5054756;28;20021;-91
2022/01/02 07:41:12;;;;;;;3.95;2.00;;;;;;;;;;5053581;28;20029;-91
2022/01/02 07:43:37;;;;;;;8.70;2.42;;;;;;;;;;5054722;28;20480;-91
2022/01/02 07:46:03;;;;;;;6.93;2.20;;;;;;;;;;5053511;28;20016;-91
2022/01/02 07:48:28;;;;;;;7.43;2.10;;;;;;;;;;5053190;28;20021;-91
2022/01/02 07:50:53;;;;;;;7.75;2.30;;;;;;;;;;5053391;28;20100;-92
2022/01/02 07:53:18;;;;;;;7.45;2.53;;;;;;;;;;5053377;28;20028;-91
2022/01/02 07:55:44;;;;;;;4.75;1.92;;;;;;;;;;5053261;28;20021;-91
2022/01/02 07:58:09;;;;;;;5.18;2.10;;;;;;;;;;5054091;28;20411;-91
2022/01/02 08:00:34;;;;;;;4.00;1.90;;;;;;;;;;5053452;28;20021;-91
2022/01/02 08:02:59;;;;;;;5.60;2.03;;;;;;;;;;5053291;28;20029;-91
2022/01/02 08:05:25;;;;;;;5.28;2.20;;;;;;;;;;5053374;28;20113;-91
2022/01/02 08:07:55;;;;;;;7.10;2.00;;;;;;;;;;5053125;28;20444;-91
2022/01/02 08:10:20;;;;;;;5.05;1.77;;;;;;;;;;5053122;28;20024;-91
2022/01/02 08:12:45;;;;;;;4.18;1.80;;;;;;;;;;5053104;28;20017;-91
2022/01/02 08:15:10;;;;;;;4.60;1.90;;;;;;;;;;5052515;28;20017;-91
2022/01/02 08:17:36;;;;;;;6.10;2.10;;;;;;;;;;5086539;28;20029;-91
2022/01/02 08:20:01;;;;;;;6.13;1.73;;;;;;;;;;5086711;28;20021;-91
2022/01/02 08:22:26;;;;;;;5.60;1.90;;;;;;;;;;5086436;28;20021;-91
2022/01/02 08:24:51;;;;;;;4.78;2.08;;;;;;;;;;5069504;28;20020;-91
2022/01/02 08:27:17;;;;;;;5.30;2.10;;;;;;;;;;5074199;28;20032;-91
2022/01/02 08:29:42;;;;;;;8.60;2.22;;;;;;;;;;5074033;28;20016;-91
2022/01/02 08:32:07;;;;;;;6.10;2.17;;;;;;;;;;5073037;28;20483;-91
2022/01/02 08:34:32;;;;;;;5.30;2.05;;;;;;;;;;5072946;28;20119;-91
2022/01/02 08:36:57;;;;;;;5.18;1.88;;;;;;;;;;5072846;28;20115;-91
2022/01/02 08:39:23;;;;;;;6.35;2.55;;;;;;;;;;5072885;28;20028;-90
2022/01/02 08:41:48;;;;;;;7.55;2.38;;;;;;;;;;5072635;28;20024;-90
2022/01/02 08:44:13;;;;;;;6.03;1.90;;;;;;;;;;5072736;28;20424;-90
2022/01/02 08:46:38;;;;;;;9.73;2.38;;;;;;;;;;5072849;28;20372;-91
2022/01/02 08:49:04;;;;;;;5.15;2.25;;;;;;;;;;5072787;28;20027;-91
2022/01/02 08:51:29;;;;;;;7.03;2.67;;;;;;;;;;5072759;28;20089;-91
2022/01/02 08:53:55;;;;;;;10.27;2.60;;;;;;;;;;5072689;28;20027;-91
2022/01/02 08:56:20;;;;;;;9.00;2.78;;;;;;;;;;5072846;28;20120;-91
2022/01/02 08:58:45;;;;;;;5.75;2.63;;;;;;;;;;5073901;28;20495;-92
2022/01/02 09:01:10;;;;;;;5.88;2.95;;;;;;;;;;5053873;28;20024;-92
2022/01/02 09:03:35;;;;;;;7.28;2.92;;;;;;;;;;5052542;28;20025;-92
2022/01/02 09:06:01;;;;;;;9.85;3.45;;;;;;;;;;5053687;28;20453;-93
2022/01/02 09:08:26;;;;;;;8.23;3.30;;;;;;;;;;5057886;28;20082;-92
2022/01/02 09:10:51;;;;;;;9.13;3.05;;;;;;;;;;5056153;28;20021;-92
2022/01/02 09:13:16;;;;;;;8.48;3.60;;;;;;;;;;5057242;28;20025;-92
2022/01/02 09:15:42;;;;;;;11.23;3.85;;;;;;;;;;5056164;28;20092;-92
2022/01/02 09:18:13;;;;;;;8.15;3.45;;;;;;;;;;5056077;28;20028;-91
2022/01/02 09:20:38;;;;;;;7.78;3.33;;;;;;;;;;5086693;28;20035;-92
2022/01/02 09:23:03;;;;;;;10.85;3.45;;;;;;;;;;5048721;28;20063;-92
2022/01/02 09:25:28;;;;;;;7.10;3.67;;;;;;;;;;5056275;28;20029;-93
2022/01/02 09:27:54;;;;;;;11.57;3.90;;;;;;;;;;5055931;28;20116;-92
2022/01/02 09:30:19;;;;;;;9.85;4.15;;;;;;;;;;5054217;28;20025;-92
2022/01/02 09:32:44;;;;;;;10.65;4.00;;;;;;;;;;5084918;28;20029;-92
2022/01/02 09:35:10;;;;;;;8.65;3.95;;;;;;;;;;5055995;28;20029;-92
2022/01/02 09:37:36;;;;;;;8.00;4.32;;;;;;;;;;5055797;28;20025;-92
2022/01/02 09:40:02;;;;;;;8.15;4.10;;;;;;;;;;5056541;28;20023;-94
2022/01/02 09:42:28;;;;;;;9.15;3.83;;;;;;;;;;5059063;28;20385;-95
2022/01/02 09:44:54;;;;;;;10.48;3.92;;;;;;;;;;5055650;28;20013;-96
2022/01/02 09:47:20;;;;;;;12.38;4.43;;;;;;;;;;5056797;28;20015;-94
2022/01/02 09:49:46;;;;;;;13.73;4.53;;;;;;;;;;5056727;28;20493;-95
2022/01/02 09:52:11;;;;;;;9.25;3.95;;;;;;;;;;5055801;28;20115;-95
2022/01/02 09:54:37;;;;;;;9.60;4.88;;;;;;;;;;5056863;28;20024;-94
2022/01/02 09:57:02;;;;;;;9.55;4.50;;;;;;;;;;5062527;28;20379;-95
2022/01/02 09:59:27;;;;;;;10.57;4.47;;;;;;;;;;5066310;28;20021;-96
2022/01/02 10:01:53;;;;;;;12.88;3.58;;;;;;;;;;5056152;28;20526;-95
2022/01/02 10:04:34;;;;;;;10.63;4.07;;;;;;;;;;5056452;28;20047;-95
2022/01/02 10:07:00;;;;;;;11.60;4.03;;;;;;;;;;5056517;28;20096;-94
2022/01/02 10:09:35;;;;;;;9.15;4.00;;;;;;;;;;5054719;28;20064;-95
2022/01/02 10:12:19;;;;;;;13.95;3.95;;;;;;;;;;5055799;28;20103;-94
2022/01/02 10:14:44;;;;;;;15.32;3.83;;;;;;;;;;5055319;28;20094;-94
2022/01/02 10:17:09;;;;;;;14.32;4.40;;;;;;;;;;5056022;28;20460;-95
2022/01/02 10:19:38;;;;;;;10.50;3.50;;;;;;;;;;5056072;28;20082;-95
2022/01/02 10:22:04;;;;;;;12.57;4.30;;;;;;;;;;5088258;28;20048;-95
2022/01/02 10:24:31;;;;;;;8.65;3.92;;;;;;;;;;5055136;28;20017;-94
2022/01/02 10:27:05;;;;;;;14.82;4.55;;;;;;;;;;5056044;28;20431;-95
2022/01/02 10:29:43;;;;;;;10.23;4.18;;;;;;;;;;5055564;28;20116;-94
2022/01/02 10:32:27;;;;;;;9.80;4.05;;;;;;;;;;5054724;28;20020;-94
2022/01/02 10:34:52;;;;;;;16.95;3.85;;;;;;;;;;5085437;28;20017;-92
2022/01/02 10:37:24;;;;;;;9.75;4.18;;;;;;;;;;5054832;28;20063;-94
2022/01/02 10:39:49;;;;;;;11.07;3.65;;;;;;;;;;5066375;28;20017;-95
2022/01/02 10:42:16;;;;;;;11.45;3.65;;;;;;;;;;5061539;28;20383;-95
2022/01/02 10:44:41;;;;;;;12.07;4.32;;;;;;;;;;5047238;28;20041;-95
2022/01/02 10:47:07;;;;;;;10.82;3.47;;;;;;;;;;5052039;28;20028;-95
2022/01/02 10:49:50;;;;;;;10.55;3.83;;;;;;;;;;5054712;28;20029;-94
2022/01/02 10:52:19;;;;;;;15.77;3.85;;;;;;;;;;5045336;28;20022;-95
2022/01/02 10:54:44;;;;;;;13.52;3.60;;;;;;;;;;5048316;28;20025;-96
2022/01/02 10:57:10;;;;;;;10.73;3.25;;;;;;;;;;5074836;28;20032;-95
2022/01/02 10:59:36;;;;;;;8.50;3.42;;;;;;;;;;5063858;28;20027;-95
2022/01/02 11:02:01;;;;;;;9.45;3.30;;;;;;;;;;5054276;28;20063;-93
2022/01/02 11:04:30;;;;;;;9.85;3.13;;;;;;;;;;5054349;28;20380;-95
2022/01/02 11:06:55;;;;;;;12.90;3.13;;;;;;;;;;5054521;28;20035;-96
2022/01/02 11:09:21;;;;;;;11.70;3.70;;;;;;;;;;5055391;28;20021;-94
2022/01/02 11:11:46;;;;;;;12.25;3.45;;;;;;;;;;5054159;28;20483;-94
2022/01/02 11:14:13;;;;;;;13.57;3.25;;;;;;;;;;5093840;28;20029;-95
2022/01/02 11:16:38;;;;;;;12.75;2.95;;;;;;;;;;5070459;28;20029;-94
2022/01/02 11:19:04;;;;;;;12.65;3.78;;;;;;;;;;5062451;28;20025;-93
2022/01/02 11:21:30;;;;;;;8.32;2.83;;;;;;;;;;5055848;28;20024;-95
2022/01/02 11:24:06;;;;;;;13.88;3.78;;;;;;;;;;5053627;28;20017;-96
2022/01/02 11:26:43;;;;;;;12.18;3.67;;;;;;;;;;5053239;28;20074;-96
2022/01/02 11:29:08;;;;;;;8.60;3.03;;;;;;;;;;5053893;28;20553;-94
2022/01/02 11:31:38;;;;;;;11.90;3.30;;;;;;;;;;5053169;28;20024;-94
2022/01/02 11:34:23;;;;;;;9.35;3.13;;;;;;;;;;5060124;28;20123;-96
2022/01/02 11:36:48;;;;;;;11.13;3.63;;;;;;;;;;5060851;28;20032;-94
2022/01/02 11:39:13;;;;;;;9.43;3.38;;;;;;;;;;5091038;28;20029;-96
2022/01/02 11:41:56;;;;;;;6.63;2.80;;;;;;;;;;5055260;28;20033;-93
2022/01/02 11:44:23;;;;;;;7.93;2.97;;;;;;;;;;5087384;28;20113;-93
2022/01/02 11:46:52;;;;;;;12.80;3.15;;;;;;;;;;5055593;28;20380;-95
2022/01/02 11:49:36;;;;;;;10.00;3.15;;;;;;;;;;5053151;28;20031;-95
2022/01/02 11:52:03;;;;;;;11.35;3.60;;;;;;;;;;5095267;27;20029;-96
2022/01/02 11:54:32;;;;;;;10.23;3.35;;;;;;;;;;5055258;28;20021;-95
2022/01/02 11:56:57;;;;;;;15.05;3.35;;;;;;;;;;5087614;28;20353;-94
2022/01/02 11:59:43;;;;;;;13.88;3.25;;;;;;;;;;5086970;28;20032;-92
2022/01/02 12:02:23;;;;;;;16.85;3.60;;;;;;;;;;5044720;28;20029;-96
2022/01/02 12:04:58;;;;;;;9.75;3.17;;;;;;;;;;5043374;28;20021;-96
2022/01/02 12:07:35;;;;;;;10.98;3.10;;;;;;;;;;5078444;28;20109;-94
2022/01/02 12:10:26;;;;;;;13.27;3.45;;;;;;;;;;5053213;28;20061;-94
2022/01/02 12:12:51;;;;;;;15.55;3.72;;;;;;;;;;5060967;28;20541;-96
2022/01/02 12:15:17;;;;;;;12.02;3.40;;;;;;;;;;5058436;28;20108;-94
2022/01/02 12:18:01;;;;;;;13.15;3.10;;;;;;;;;;5080011;28;20031;-95
2022/01/02 12:20:26;;;;;;;11.85;3.40;;;;;;;;;;5063480;28;20033;-95
2022/01/02 12:22:51;;;;;;;8.50;3.47;;;;;;;;;;5056095;28;20036;-96
2022/01/02 12:25:19;;;;;;;8.50;3.25;;;;;;;;;;5050283;28;20028;-95
2022/01/02 12:27:45;;;;;;;10.30;3.30;;;;;;;;;;5055701;28;20023;-96
2022/01/02 12:30:10;;;;;;;9.95;3.65;;;;;;;;;;5059852;28;20020;-94
2022/01/02 12:32:36;;;;;;;8.38;3.22;;;;;;;;;;5070796;28;20494;-96
2022/01/02 12:35:01;;;;;;;10.68;3.55;;;;;;;;;;5076147;28;20009;-96
2022/01/02 12:37:29;;;;;;;9.50;3.38;;;;;;;;;;5910443;22;20121;-93
2022/01/02 12:39:54;;;;;;;10.00;2.97;;;;;;;;;;4996238;28;20026;-94
2022/01/02 12:42:25;;;;;;;8.77;2.92;;;;;;;;;;4995354;28;20471;-94
2022/01/02 12:44:50;;;;;;;10.40;3.70;;;;;;;;;;4997172;28;20142;-93
2022/01/02 12:47:16;;;;;;;11.25;3.65;;;;;;;;;;4983871;28;20474;-93
2022/01/02 12:49:43;;;;;;;12.20;3.47;;;;;;;;;;4991004;28;20018;-93
2022/01/02 12:52:18;;;;;;;10.88;3.30;;;;;;;;;;4980538;28;20031;-94
2022/01/02 12:54:45;;;;;;;10.23;3.50;;;;;;;;;;4981848;28;20038;-94
2022/01/02 12:57:11;;;;;;;10.70;3.85;;;;;;;;;;4990533;28;20108;-95
2022/01/02 12:59:37;;;;;;;11.65;3.72;;;;;;;;;;4982771;28;20026;-95
2022/01/02 13:02:09;;;;;;;13.23;3.85;;;;;;;;;;4989795;28;20394;-94
2022/01/02 13:04:37;;;;;;;6.10;3.08;;;;;;;;;;4988527;28;20018;-93
2022/01/02 13:07:04;;;;;;;13.18;3.33;;;;;;;;;;4985853;28;20064;-94
2022/01/02 13:09:37;;;;;;;7.65;2.80;;;;;;;;;;5005474;28;20026;-93
2022/01/02 13:12:03;;;;;;;11.45;2.80;;;;;;;;;;4984998;28;20022;-94
2022/01/02 13:14:29;;;;;;;5.20;2.38;;;;;;;;;;4981049;28;20031;-95
2022/01/02 13:16:54;;;;;;;11.27;2.50;;;;;;;;;;4982760;28;20022;-96
2022/01/02 13:19:19;;;;;;;8.18;2.33;;;;;;;;;;4980837;28;20029;-94
2022/01/02 13:21:45;;;;;;;10.88;2.65;;;;;;;;;;4980766;28;20014;-94
2022/01/02 13:24:24;;;;;;;11.75;2.30;;;;;;;;;;4981198;28;20023;-95
2022/01/02 13:26:50;;;;;;;7.32;2.30;;;;;;;;;;4998191;28;20097;-96
2022/01/02 13:29:19;;;;;;;10.18;3.28;;;;;;;;;;4981062;28;20050;-95
2022/01/02 13:31:45;;;;;;;9.10;3.25;;;;;;;;;;4980675;28;20370;-95
2022/01/02 13:34:20;;;;;;;9.38;2.88;;;;;;;;;;4997505;28;20023;-94
2022/01/02 13:36:55;;;;;;;7.88;2.70;;;;;;;;;;4980634;28;20030;-95
2022/01/02 13:39:36;;;;;;;12.65;2.60;;;;;;;;;;4980450;28;20076;-95
2022/01/02 13:42:01;;;;;;;12.60;3.13;;;;;;;;;;4980224;28;20018;-94
2022/01/02 13:44:34;;;;;;;9.68;2.80;;;;;;;;;;4991467;28;20089;-95
2022/01/02 13:46:59;;;;;;;10.27;3.20;;;;;;;;;;4980276;28;20026;-95
2022/01/02 13:49:43;;;;;;;10.32;2.80;;;;;;;;;;4980567;28;20022;-94
2022/01/02 13:52:08;;;;;;;13.27;3.25;;;;;;;;;;4997533;28;20018;-94
2022/01/02 13:54:34;;;;;;;10.68;3.25;;;;;;;;;;4985934;28;20029;-94
2022/01/02 13:56:59;;;;;;;14.40;2.92;;;;;;;;;;4992567;28;20058;-94
2022/01/02 13:59:25;;;;;;;7.50;2.42;;;;;;;;;;4988746;28;20030;-94
2022/01/02 14:01:50;;;;;;;8.93;2.42;;;;;;;;;;4988998;28;20113;-93
2022/01/02 14:04:16;;;;;;;9.30;2.60;;;;;;;;;;4989391;28;20065;-93
2022/01/02 14:06:42;;;;;;;9.13;1.73;;;;;;;;;;4976853;28;20023;-94
2022/01/02 14:09:13;;;;;;;11.05;1.92;;;;;;;;;;4977794;28;20011;-94
2022/01/02 14:11:40;;;;;;;8.90;2.20;;;;;;;;;;4989455;28;20379;-94
2022/01/02 14:14:13;;;;;;;6.90;1.80;;;;;;;;;;4979772;28;20027;-94
2022/01/02 14:19:32;;;;;;;9.75;1.73;;;;;;;;;;4997711;28;20030;-95
2022/01/02 14:21:59;;;;;;;7.70;2.25;;;;;;;;;;4995905;28;20442;-95
2022/01/02 14:24:24;;;;;;;6.28;1.80;;;;;;;;;;4995894;28;20029;-95
2022/01/02 14:26:49;;;;;;;12.27;2.15;;;;;;;;;;4995707;28;20027;-95
2022/01/02 14:29:15;;;;;;;12.02;1.95;;;;;;;;;;4996991;28;20482;-95
2022/01/02 14:31:40;;;;;;;6.07;1.52;;;;;;;;;;4986246;28;20108;-95
2022/01/02 14:34:05;;;;;;;8.65;1.98;;;;;;;;;;4991267;28;20544;-94
2022/01/02 14:36:31;;;;;;;12.15;2.00;;;;;;;;;;4991951;28;20026;-95
2022/01/02 14:38:56;;;;;;;7.85;1.95;;;;;;;;;;4996530;28;20022;-96
2022/01/02 14:41:22;;;;;;;11.20;1.70;;;;;;;;;;4993135;28;20073;-95
2022/01/02 14:43:48;;;;;;;12.00;2.25;;;;;;;;;;4996592;28;20014;-95